Terminal Aerodrome Forecast
Issued by NWS Mt. Holly, NJ

Home | Current Version | Previous Version | Text Only | Print | Product List | Glossary On
Versions: 1 2 3 4 5 6 7 8 9 10 11 12 13 14 15 16 17 18
000
FTUS41 KPHI 291517 AAA
TAFRDG
TAF AMD
KRDG 291517Z 2915/3012 07008G18KT P6SM VCSH OVC010
      TEMPO 2916/2920 5SM -RADZ BR OVC008
     FM292100 06011G20KT P6SM -SHRA OVC010=

USA.gov is the U.S. government's official web portal to all federal, state and local government web resources and services.